sensor_id;sensor_type;location;lat;lon;timestamp;temperature;humidity
76897;SHT30;65856;52.178;21.176;2023-04-06T00:01:11;3.75;53.61
76897;SHT30;65856;52.178;21.176;2023-04-06T00:03:42;3.73;53.60
76897;SHT30;65856;52.178;21.176;2023-04-06T00:06:12;3.74;53.63
76897;SHT30;65856;52.178;21.176;2023-04-06T00:08:43;3.72;53.65
76897;SHT30;65856;52.178;21.176;2023-04-06T00:11:13;3.72;53.46
76897;SHT30;65856;52.178;21.176;2023-04-06T00:13:44;3.70;53.32
76897;SHT30;65856;52.178;21.176;2023-04-06T00:16:15;3.67;53.44
76897;SHT30;65856;52.178;21.176;2023-04-06T00:18:46;3.68;53.15
76897;SHT30;65856;52.178;21.176;2023-04-06T00:21:16;3.66;53.17
76897;SHT30;65856;52.178;21.176;2023-04-06T00:23:47;3.62;53.37
76897;SHT30;65856;52.178;21.176;2023-04-06T00:26:18;3.61;53.49
76897;SHT30;65856;52.178;21.176;2023-04-06T00:28:48;3.63;53.74
76897;SHT30;65856;52.178;21.176;2023-04-06T00:31:19;3.66;53.61
76897;SHT30;65856;52.178;21.176;2023-04-06T00:33:49;3.69;53.60
76897;SHT30;65856;52.178;21.176;2023-04-06T00:36:20;3.71;53.48
76897;SHT30;65856;52.178;21.176;2023-04-06T00:38:51;3.69;53.46
76897;SHT30;65856;52.178;21.176;2023-04-06T00:41:22;3.67;53.40
76897;SHT30;65856;52.178;21.176;2023-04-06T00:43:53;3.68;53.34
76897;SHT30;65856;52.178;21.176;2023-04-06T00:46:23;3.69;53.23
76897;SHT30;65856;52.178;21.176;2023-04-06T00:48:54;3.72;53.21
76897;SHT30;65856;52.178;21.176;2023-04-06T00:51:25;3.71;53.29
76897;SHT30;65856;52.178;21.176;2023-04-06T00:53:55;3.70;53.61
76897;SHT30;65856;52.178;21.176;2023-04-06T00:56:26;3.68;53.72
76897;SHT30;65856;52.178;21.176;2023-04-06T00:58:57;3.68;53.79
76897;SHT30;65856;52.178;21.176;2023-04-06T01:01:28;3.68;53.97
76897;SHT30;65856;52.178;21.176;2023-04-06T01:03:59;3.67;54.03
76897;SHT30;65856;52.178;21.176;2023-04-06T01:06:30;3.66;54.15
76897;SHT30;65856;52.178;21.176;2023-04-06T01:09:01;3.65;54.05
76897;SHT30;65856;52.178;21.176;2023-04-06T01:11:32;3.65;54.15
76897;SHT30;65856;52.178;21.176;2023-04-06T01:14:04;3.64;54.20
76897;SHT30;65856;52.178;21.176;2023-04-06T01:16:35;3.65;53.96
76897;SHT30;65856;52.178;21.176;2023-04-06T01:19:08;3.67;54.17
76897;SHT30;65856;52.178;21.176;2023-04-06T01:21:41;3.67;54.20
76897;SHT30;65856;52.178;21.176;2023-04-06T01:24:11;3.67;54.27
76897;SHT30;65856;52.178;21.176;2023-04-06T01:26:42;3.66;54.40
76897;SHT30;65856;52.178;21.176;2023-04-06T01:29:13;3.65;54.58
76897;SHT30;65856;52.178;21.176;2023-04-06T01:31:44;3.63;54.63
76897;SHT30;65856;52.178;21.176;2023-04-06T01:34:15;3.60;54.93
76897;SHT30;65856;52.178;21.176;2023-04-06T01:36:45;3.58;55.22
76897;SHT30;65856;52.178;21.176;2023-04-06T01:39:16;3.56;55.16
76897;SHT30;65856;52.178;21.176;2023-04-06T01:41:47;3.56;55.30
76897;SHT30;65856;52.178;21.176;2023-04-06T01:44:18;3.54;56.08
76897;SHT30;65856;52.178;21.176;2023-04-06T01:46:49;3.54;56.06
76897;SHT30;65856;52.178;21.176;2023-04-06T01:49:20;3.52;56.10
76897;SHT30;65856;52.178;21.176;2023-04-06T01:51:51;3.50;56.31
76897;SHT30;65856;52.178;21.176;2023-04-06T01:54:21;3.47;56.76
76897;SHT30;65856;52.178;21.176;2023-04-06T01:56:52;3.46;56.63
76897;SHT30;65856;52.178;21.176;2023-04-06T01:59:23;3.45;56.17
76897;SHT30;65856;52.178;21.176;2023-04-06T02:01:53;3.42;56.16
76897;SHT30;65856;52.178;21.176;2023-04-06T02:04:24;3.41;56.03
76897;SHT30;65856;52.178;21.176;2023-04-06T02:06:55;3.41;56.23
76897;SHT30;65856;52.178;21.176;2023-04-06T02:09:25;3.42;56.58
76897;SHT30;65856;52.178;21.176;2023-04-06T02:11:56;3.40;56.73
76897;SHT30;65856;52.178;21.176;2023-04-06T02:14:27;3.38;56.53
76897;SHT30;65856;52.178;21.176;2023-04-06T02:16:58;3.33;56.01
76897;SHT30;65856;52.178;21.176;2023-04-06T02:19:28;3.32;55.85
76897;SHT30;65856;52.178;21.176;2023-04-06T02:21:59;3.32;55.80
76897;SHT30;65856;52.178;21.176;2023-04-06T02:24:30;3.31;55.66
76897;SHT30;65856;52.178;21.176;2023-04-06T02:27:00;3.28;55.67
76897;SHT30;65856;52.178;21.176;2023-04-06T02:29:32;3.26;55.57
76897;SHT30;65856;52.178;21.176;2023-04-06T02:32:03;3.23;55.59
76897;SHT30;65856;52.178;21.176;2023-04-06T02:34:34;3.19;55.90
76897;SHT30;65856;52.178;21.176;2023-04-06T02:37:04;3.18;55.86
76897;SHT30;65856;52.178;21.176;2023-04-06T02:39:35;3.16;55.86
76897;SHT30;65856;52.178;21.176;2023-04-06T02:42:05;3.14;55.80
76897;SHT30;65856;52.178;21.176;2023-04-06T02:44:36;3.13;55.85
76897;SHT30;65856;52.178;21.176;2023-04-06T02:47:07;3.10;55.91
76897;SHT30;65856;52.178;21.176;2023-04-06T02:49:37;3.07;55.92
76897;SHT30;65856;52.178;21.176;2023-04-06T02:52:08;3.02;56.04
76897;SHT30;65856;52.178;21.176;2023-04-06T02:54:39;2.99;56.22
76897;SHT30;65856;52.178;21.176;2023-04-06T02:57:09;2.97;56.20
76897;SHT30;65856;52.178;21.176;2023-04-06T02:59:40;2.96;56.36
76897;SHT30;65856;52.178;21.176;2023-04-06T03:02:10;2.97;56.50
76897;SHT30;65856;52.178;21.176;2023-04-06T03:04:41;2.95;56.41
76897;SHT30;65856;52.178;21.176;2023-04-06T03:07:13;2.95;56.54
76897;SHT30;65856;52.178;21.176;2023-04-06T03:09:43;2.92;56.63
76897;SHT30;65856;52.178;21.176;2023-04-06T03:12:14;2.90;56.81
76897;SHT30;65856;52.178;21.176;2023-04-06T03:14:45;2.87;56.92
76897;SHT30;65856;52.178;21.176;2023-04-06T03:17:15;2.86;57.01
76897;SHT30;65856;52.178;21.176;2023-04-06T03:19:46;2.85;57.10
76897;SHT30;65856;52.178;21.176;2023-04-06T03:22:17;2.84;57.36
76897;SHT30;65856;52.178;21.176;2023-04-06T03:24:48;2.83;57.43
76897;SHT30;65856;52.178;21.176;2023-04-06T03:27:19;2.83;57.40
76897;SHT30;65856;52.178;21.176;2023-04-06T03:29:49;2.83;57.47
76897;SHT30;65856;52.178;21.176;2023-04-06T03:32:20;2.83;57.45
76897;SHT30;65856;52.178;21.176;2023-04-06T03:34:51;2.83;57.55
76897;SHT30;65856;52.178;21.176;2023-04-06T03:37:21;2.82;57.66
76897;SHT30;65856;52.178;21.176;2023-04-06T03:39:53;2.81;57.78
76897;SHT30;65856;52.178;21.176;2023-04-06T03:42:23;2.78;57.90
76897;SHT30;65856;52.178;21.176;2023-04-06T03:44:54;2.78;57.95
76897;SHT30;65856;52.178;21.176;2023-04-06T03:47:24;2.77;58.15
76897;SHT30;65856;52.178;21.176;2023-04-06T03:49:55;2.77;58.26
76897;SHT30;65856;52.178;21.176;2023-04-06T03:52:26;2.76;58.43
76897;SHT30;65856;52.178;21.176;2023-04-06T03:54:56;2.75;58.50
76897;SHT30;65856;52.178;21.176;2023-04-06T03:57:27;2.74;58.60
76897;SHT30;65856;52.178;21.176;2023-04-06T03:59:58;2.73;58.69
76897;SHT30;65856;52.178;21.176;2023-04-06T04:02:28;2.74;58.77
76897;SHT30;65856;52.178;21.176;2023-04-06T04:04:59;2.75;58.79
76897;SHT30;65856;52.178;21.176;2023-04-06T04:07:30;2.76;58.87
76897;SHT30;65856;52.178;21.176;2023-04-06T04:10:01;2.77;58.93
76897;SHT30;65856;52.178;21.176;2023-04-06T04:12:32;2.77;59.00
76897;SHT30;65856;52.178;21.176;2023-04-06T04:15:04;2.77;59.01
76897;SHT30;65856;52.178;21.176;2023-04-06T04:17:36;2.77;58.91
76897;SHT30;65856;52.178;21.176;2023-04-06T04:20:07;2.76;58.99
76897;SHT30;65856;52.178;21.176;2023-04-06T04:22:41;2.76;59.09
76897;SHT30;65856;52.178;21.176;2023-04-06T04:25:11;2.78;59.10
76897;SHT30;65856;52.178;21.176;2023-04-06T04:27:42;2.80;59.09
76897;SHT30;65856;52.178;21.176;2023-04-06T04:30:13;2.80;59.08
76897;SHT30;65856;52.178;21.176;2023-04-06T04:32:44;2.79;59.08
76897;SHT30;65856;52.178;21.176;2023-04-06T04:35:15;2.80;59.14
76897;SHT30;65856;52.178;21.176;2023-04-06T04:37:45;2.82;59.13
76897;SHT30;65856;52.178;21.176;2023-04-06T04:40:16;2.82;59.11
76897;SHT30;65856;52.178;21.176;2023-04-06T04:42:47;2.83;59.11
76897;SHT30;65856;52.178;21.176;2023-04-06T04:45:18;2.85;59.14
76897;SHT30;65856;52.178;21.176;2023-04-06T04:47:48;2.84;59.05
76897;SHT30;65856;52.178;21.176;2023-04-06T04:50:19;2.87;59.07
76897;SHT30;65856;52.178;21.176;2023-04-06T04:52:50;2.89;59.07
76897;SHT30;65856;52.178;21.176;2023-04-06T04:55:20;2.89;59.02
76897;SHT30;65856;52.178;21.176;2023-04-06T04:57:51;2.91;58.94
76897;SHT30;65856;52.178;21.176;2023-04-06T05:00:22;2.91;58.90
76897;SHT30;65856;52.178;21.176;2023-04-06T05:02:52;3.02;60.49
76897;SHT30;65856;52.178;21.176;2023-04-06T05:05:23;3.33;59.12
76897;SHT30;65856;52.178;21.176;2023-04-06T05:07:54;3.35;58.84
76897;SHT30;65856;52.178;21.176;2023-04-06T05:10:25;3.60;58.89
76897;SHT30;65856;52.178;21.176;2023-04-06T05:12:55;3.69;57.79
76897;SHT30;65856;52.178;21.176;2023-04-06T05:15:26;3.64;57.66
76897;SHT30;65856;52.178;21.176;2023-04-06T05:17:57;3.57;57.45
76897;SHT30;65856;52.178;21.176;2023-04-06T05:20:28;3.52;57.51
76897;SHT30;65856;52.178;21.176;2023-04-06T05:22:58;3.49;57.43
76897;SHT30;65856;52.178;21.176;2023-04-06T05:25:29;3.47;57.37
76897;SHT30;65856;52.178;21.176;2023-04-06T05:28:00;3.50;57.48
76897;SHT30;65856;52.178;21.176;2023-04-06T05:30:31;3.48;57.19
76897;SHT30;65856;52.178;21.176;2023-04-06T05:33:02;3.50;57.47
76897;SHT30;65856;52.178;21.176;2023-04-06T05:35:33;3.78;59.57
76897;SHT30;65856;52.178;21.176;2023-04-06T05:38:05;4.32;57.84
76897;SHT30;65856;52.178;21.176;2023-04-06T05:40:37;4.68;56.02
76897;SHT30;65856;52.178;21.176;2023-04-06T05:43:08;4.56;55.19
76897;SHT30;65856;52.178;21.176;2023-04-06T05:45:38;4.41;55.61
76897;SHT30;65856;52.178;21.176;2023-04-06T05:48:11;4.30;55.49
76897;SHT30;65856;52.178;21.176;2023-04-06T05:50:41;4.21;55.65
76897;SHT30;65856;52.178;21.176;2023-04-06T05:53:17;4.15;55.69
76897;SHT30;65856;52.178;21.176;2023-04-06T05:55:48;4.13;55.62
76897;SHT30;65856;52.178;21.176;2023-04-06T05:58:18;4.11;55.76
76897;SHT30;65856;52.178;21.176;2023-04-06T06:00:49;4.09;55.88
76897;SHT30;65856;52.178;21.176;2023-04-06T06:03:23;4.06;55.89
76897;SHT30;65856;52.178;21.176;2023-04-06T06:05:58;4.04;55.98
76897;SHT30;65856;52.178;21.176;2023-04-06T06:08:30;4.02;55.93
76897;SHT30;65856;52.178;21.176;2023-04-06T06:11:01;4.01;56.09
76897;SHT30;65856;52.178;21.176;2023-04-06T06:13:32;4.08;56.17
76897;SHT30;65856;52.178;21.176;2023-04-06T06:16:03;4.11;56.14
76897;SHT30;65856;52.178;21.176;2023-04-06T06:18:34;4.11;56.20
76897;SHT30;65856;52.178;21.176;2023-04-06T06:21:05;4.12;56.14
76897;SHT30;65856;52.178;21.176;2023-04-06T06:23:37;4.14;56.32
76897;SHT30;65856;52.178;21.176;2023-04-06T06:26:09;4.15;56.30
76897;SHT30;65856;52.178;21.176;2023-04-06T06:28:40;4.13;56.38
76897;SHT30;65856;52.178;21.176;2023-04-06T06:31:10;4.12;56.42
76897;SHT30;65856;52.178;21.176;2023-04-06T06:33:41;4.15;56.72
76897;SHT30;65856;52.178;21.176;2023-04-06T06:36:12;4.17;56.83
76897;SHT30;65856;52.178;21.176;2023-04-06T06:38:43;4.23;56.92
76897;SHT30;65856;52.178;21.176;2023-04-06T06:41:13;4.29;56.70
76897;SHT30;65856;52.178;21.176;2023-04-06T06:43:44;4.32;56.85
76897;SHT30;65856;52.178;21.176;2023-04-06T06:46:15;4.34;57.13
76897;SHT30;65856;52.178;21.176;2023-04-06T06:48:46;4.38;57.36
76897;SHT30;65856;52.178;21.176;2023-04-06T06:51:16;4.39;57.39
76897;SHT30;65856;52.178;21.176;2023-04-06T06:53:47;4.37;57.26
76897;SHT30;65856;52.178;21.176;2023-04-06T06:56:18;4.38;57.59
76897;SHT30;65856;52.178;21.176;2023-04-06T06:58:48;4.39;57.55
76897;SHT30;65856;52.178;21.176;2023-04-06T07:01:19;4.39;57.60
76897;SHT30;65856;52.178;21.176;2023-04-06T07:03:50;4.38;57.48
76897;SHT30;65856;52.178;21.176;2023-04-06T07:06:20;4.36;57.60
76897;SHT30;65856;52.178;21.176;2023-04-06T07:08:51;4.39;57.84
76897;SHT30;65856;52.178;21.176;2023-04-06T07:11:22;4.44;57.96
76897;SHT30;65856;52.178;21.176;2023-04-06T07:13:52;4.38;57.74
76897;SHT30;65856;52.178;21.176;2023-04-06T07:16:23;4.35;57.80
76897;SHT30;65856;52.178;21.176;2023-04-06T07:18:54;4.34;57.87
76897;SHT30;65856;52.178;21.176;2023-04-06T07:21:24;4.33;57.87
76897;SHT30;65856;52.178;21.176;2023-04-06T07:23:55;4.35;58.13
76897;SHT30;65856;52.178;21.176;2023-04-06T07:26:26;4.34;57.80
76897;SHT30;65856;52.178;21.176;2023-04-06T07:28:56;4.31;57.86
76897;SHT30;65856;52.178;21.176;2023-04-06T07:31:27;4.28;57.79
76897;SHT30;65856;52.178;21.176;2023-04-06T07:33:58;4.27;58.11
76897;SHT30;65856;52.178;21.176;2023-04-06T07:36:28;4.29;58.11
76897;SHT30;65856;52.178;21.176;2023-04-06T07:38:59;4.26;58.05
76897;SHT30;65856;52.178;21.176;2023-04-06T07:41:30;4.24;58.37
76897;SHT30;65856;52.178;21.176;2023-04-06T07:44:00;4.24;58.65
76897;SHT30;65856;52.178;21.176;2023-04-06T07:46:31;4.28;59.16
76897;SHT30;65856;52.178;21.176;2023-04-06T07:49:02;4.37;59.50
76897;SHT30;65856;52.178;21.176;2023-04-06T07:51:33;4.45;59.57
76897;SHT30;65856;52.178;21.176;2023-04-06T07:54:07;4.53;59.61
76897;SHT30;65856;52.178;21.176;2023-04-06T07:56:37;4.55;59.91
76897;SHT30;65856;52.178;21.176;2023-04-06T07:59:08;4.57;60.06
76897;SHT30;65856;52.178;21.176;2023-04-06T08:01:40;4.59;60.49
76897;SHT30;65856;52.178;21.176;2023-04-06T08:04:10;4.59;60.60
76897;SHT30;65856;52.178;21.176;2023-04-06T08:06:41;4.58;60.86
76897;SHT30;65856;52.178;21.176;2023-04-06T08:09:12;4.61;61.08
76897;SHT30;65856;52.178;21.176;2023-04-06T08:11:42;4.64;61.22
76897;SHT30;65856;52.178;21.176;2023-04-06T08:14:15;4.71;61.01
76897;SHT30;65856;52.178;21.176;2023-04-06T08:16:46;4.74;60.78
76897;SHT30;65856;52.178;21.176;2023-04-06T08:19:17;4.72;60.31
76897;SHT30;65856;52.178;21.176;2023-04-06T08:21:47;4.71;60.62
76897;SHT30;65856;52.178;21.176;2023-04-06T08:24:18;4.70;60.69
76897;SHT30;65856;52.178;21.176;2023-04-06T08:26:49;4.67;60.75
76897;SHT30;65856;52.178;21.176;2023-04-06T08:29:20;4.59;60.91
76897;SHT30;65856;52.178;21.176;2023-04-06T08:31:50;4.57;61.19
76897;SHT30;65856;52.178;21.176;2023-04-06T08:34:21;4.53;61.39
76897;SHT30;65856;52.178;21.176;2023-04-06T08:36:52;4.55;61.85
76897;SHT30;65856;52.178;21.176;2023-04-06T08:39:22;4.58;61.76
76897;SHT30;65856;52.178;21.176;2023-04-06T08:41:54;4.58;61.77
76897;SHT30;65856;52.178;21.176;2023-04-06T08:44:26;4.56;61.62
76897;SHT30;65856;52.178;21.176;2023-04-06T08:46:57;4.53;61.57
76897;SHT30;65856;52.178;21.176;2023-04-06T08:49:31;4.57;61.64
76897;SHT30;65856;52.178;21.176;2023-04-06T08:52:05;4.51;61.86
76897;SHT30;65856;52.178;21.176;2023-04-06T08:54:37;4.47;62.37
76897;SHT30;65856;52.178;21.176;2023-04-06T08:57:08;4.44;62.99
76897;SHT30;65856;52.178;21.176;2023-04-06T08:59:39;4.40;63.66
76897;SHT30;65856;52.178;21.176;2023-04-06T09:02:12;4.41;64.27
76897;SHT30;65856;52.178;21.176;2023-04-06T09:04:47;4.40;64.55
76897;SHT30;65856;52.178;21.176;2023-04-06T09:07:21;4.40;64.60
76897;SHT30;65856;52.178;21.176;2023-04-06T09:09:52;4.41;64.87
76897;SHT30;65856;52.178;21.176;2023-04-06T09:12:23;4.46;65.11
76897;SHT30;65856;52.178;21.176;2023-04-06T09:14:56;4.46;65.06
76897;SHT30;65856;52.178;21.176;2023-04-06T09:17:29;4.41;65.13
76897;SHT30;65856;52.178;21.176;2023-04-06T09:20:03;4.42;65.76
76897;SHT30;65856;52.178;21.176;2023-04-06T09:22:38;4.42;66.16
76897;SHT30;65856;52.178;21.176;2023-04-06T09:25:09;4.43;66.35
76897;SHT30;65856;52.178;21.176;2023-04-06T09:27:57;4.40;66.59
76897;SHT30;65856;52.178;21.176;2023-04-06T09:30:30;4.38;66.85
76897;SHT30;65856;52.178;21.176;2023-04-06T09:33:02;4.38;66.90
76897;SHT30;65856;52.178;21.176;2023-04-06T09:35:33;4.37;67.12
76897;SHT30;65856;52.178;21.176;2023-04-06T09:38:10;4.35;67.10
76897;SHT30;65856;52.178;21.176;2023-04-06T09:40:48;4.35;67.36
76897;SHT30;65856;52.178;21.176;2023-04-06T09:43:26;4.34;67.56
76897;SHT30;65856;52.178;21.176;2023-04-06T09:45:57;4.36;67.90
76897;SHT30;65856;52.178;21.176;2023-04-06T09:48:32;4.31;67.93
76897;SHT30;65856;52.178;21.176;2023-04-06T09:51:04;4.31;68.16
76897;SHT30;65856;52.178;21.176;2023-04-06T09:53:41;4.37;68.71
76897;SHT30;65856;52.178;21.176;2023-04-06T09:56:17;4.40;68.88
76897;SHT30;65856;52.178;21.176;2023-04-06T09:59:01;4.38;69.06
76897;SHT30;65856;52.178;21.176;2023-04-06T10:01:35;4.38;69.40
76897;SHT30;65856;52.178;21.176;2023-04-06T10:04:13;4.44;69.49
76897;SHT30;65856;52.178;21.176;2023-04-06T10:06:57;4.49;69.35
76897;SHT30;65856;52.178;21.176;2023-04-06T10:09:30;4.54;69.49
76897;SHT30;65856;52.178;21.176;2023-04-06T10:12:04;4.50;69.25
76897;SHT30;65856;52.178;21.176;2023-04-06T10:14:36;4.47;68.91
76897;SHT30;65856;52.178;21.176;2023-04-06T10:17:08;4.44;68.92
76897;SHT30;65856;52.178;21.176;2023-04-06T10:19:41;4.43;69.11
76897;SHT30;65856;52.178;21.176;2023-04-06T10:22:22;4.40;69.51
76897;SHT30;65856;52.178;21.176;2023-04-06T10:25:02;4.36;69.70
76897;SHT30;65856;52.178;21.176;2023-04-06T10:27:35;4.36;69.89
76897;SHT30;65856;52.178;21.176;2023-04-06T10:30:06;4.32;69.85
76897;SHT30;65856;52.178;21.176;2023-04-06T10:32:38;4.27;70.23
76897;SHT30;65856;52.178;21.176;2023-04-06T10:35:10;4.22;70.21
76897;SHT30;65856;52.178;21.176;2023-04-06T10:37:49;4.20;70.03
76897;SHT30;65856;52.178;21.176;2023-04-06T10:40:24;4.21;70.25
76897;SHT30;65856;52.178;21.176;2023-04-06T10:43:07;4.24;70.29
76897;SHT30;65856;52.178;21.176;2023-04-06T10:45:39;4.25;70.19
76897;SHT30;65856;52.178;21.176;2023-04-06T10:48:14;4.26;70.26
76897;SHT30;65856;52.178;21.176;2023-04-06T10:50:46;4.28;70.20
76897;SHT30;65856;52.178;21.176;2023-04-06T10:53:22;4.29;70.18
76897;SHT30;65856;52.178;21.176;2023-04-06T10:55:54;4.31;70.26
76897;SHT30;65856;52.178;21.176;2023-04-06T10:58:27;4.35;70.27
76897;SHT30;65856;52.178;21.176;2023-04-06T11:00:57;4.34;70.35
76897;SHT30;65856;52.178;21.176;2023-04-06T11:03:28;4.30;70.38
76897;SHT30;65856;52.178;21.176;2023-04-06T11:06:09;4.28;70.18
76897;SHT30;65856;52.178;21.176;2023-04-06T11:08:47;4.19;70.00
76897;SHT30;65856;52.178;21.176;2023-04-06T11:11:18;4.11;70.15
76897;SHT30;65856;52.178;21.176;2023-04-06T11:13:53;4.10;70.33
76897;SHT30;65856;52.178;21.176;2023-04-06T11:16:26;4.14;70.38
76897;SHT30;65856;52.178;21.176;2023-04-06T11:19:00;4.29;70.38
76897;SHT30;65856;52.178;21.176;2023-04-06T11:21:33;4.36;70.20
76897;SHT30;65856;52.178;21.176;2023-04-06T11:24:09;4.38;70.15
76897;SHT30;65856;52.178;21.176;2023-04-06T11:26:43;4.43;70.36
76897;SHT30;65856;52.178;21.176;2023-04-06T11:29:18;4.49;70.37
76897;SHT30;65856;52.178;21.176;2023-04-06T11:31:50;4.49;70.34
76897;SHT30;65856;52.178;21.176;2023-04-06T11:34:26;4.47;70.20
76897;SHT30;65856;52.178;21.176;2023-04-06T11:37:00;4.43;70.19
76897;SHT30;65856;52.178;21.176;2023-04-06T11:39:38;4.41;70.01
76897;SHT30;65856;52.178;21.176;2023-04-06T11:42:11;4.37;70.07
76897;SHT30;65856;52.178;21.176;2023-04-06T11:44:49;4.34;70.18
76897;SHT30;65856;52.178;21.176;2023-04-06T11:47:27;4.32;70.35
76897;SHT30;65856;52.178;21.176;2023-04-06T11:50:06;4.31;70.52
76897;SHT30;65856;52.178;21.176;2023-04-06T11:52:40;4.35;70.58
76897;SHT30;65856;52.178;21.176;2023-04-06T11:55:12;4.40;70.41
76897;SHT30;65856;52.178;21.176;2023-04-06T11:57:45;4.43;70.51
76897;SHT30;65856;52.178;21.176;2023-04-06T12:00:16;4.44;70.23
76897;SHT30;65856;52.178;21.176;2023-04-06T12:02:49;4.39;70.08
76897;SHT30;65856;52.178;21.176;2023-04-06T12:05:20;4.40;70.18
76897;SHT30;65856;52.178;21.176;2023-04-06T12:07:51;4.40;70.14
76897;SHT30;65856;52.178;21.176;2023-04-06T12:10:22;4.41;70.21
76897;SHT30;65856;52.178;21.176;2023-04-06T12:12:52;4.43;70.24
76897;SHT30;65856;52.178;21.176;2023-04-06T12:15:23;4.48;70.34
76897;SHT30;65856;52.178;21.176;2023-04-06T12:17:54;4.52;70.01
76897;SHT30;65856;52.178;21.176;2023-04-06T12:20:24;4.51;69.74
76897;SHT30;65856;52.178;21.176;2023-04-06T12:22:55;4.48;69.60
76897;SHT30;65856;52.178;21.176;2023-04-06T12:25:26;4.49;69.59
76897;SHT30;65856;52.178;21.176;2023-04-06T12:27:56;4.48;69.62
76897;SHT30;65856;52.178;21.176;2023-04-06T12:30:27;4.47;69.60
76897;SHT30;65856;52.178;21.176;2023-04-06T12:32:58;4.49;69.86
76897;SHT30;65856;52.178;21.176;2023-04-06T12:35:29;4.50;70.19
76897;SHT30;65856;52.178;21.176;2023-04-06T12:38:03;4.54;70.28
76897;SHT30;65856;52.178;21.176;2023-04-06T12:40:37;4.56;70.40
76897;SHT30;65856;52.178;21.176;2023-04-06T12:43:07;4.62;70.55
76897;SHT30;65856;52.178;21.176;2023-04-06T12:45:39;4.62;70.34
76897;SHT30;65856;52.178;21.176;2023-04-06T12:48:10;4.61;70.50
76897;SHT30;65856;52.178;21.176;2023-04-06T12:50:41;4.63;70.53
76897;SHT30;65856;52.178;21.176;2023-04-06T12:53:11;4.63;70.77
76897;SHT30;65856;52.178;21.176;2023-04-06T12:55:42;4.61;71.02
76897;SHT30;65856;52.178;21.176;2023-04-06T12:58:12;4.60;71.15
76897;SHT30;65856;52.178;21.176;2023-04-06T13:00:43;4.60;71.15
76897;SHT30;65856;52.178;21.176;2023-04-06T13:03:14;4.62;71.30
76897;SHT30;65856;52.178;21.176;2023-04-06T13:05:46;4.64;71.40
76897;SHT30;65856;52.178;21.176;2023-04-06T13:08:18;4.62;71.44
76897;SHT30;65856;52.178;21.176;2023-04-06T13:10:49;4.60;71.78
76897;SHT30;65856;52.178;21.176;2023-04-06T13:13:22;4.62;72.10
76897;SHT30;65856;52.178;21.176;2023-04-06T13:15:55;4.60;72.12
76897;SHT30;65856;52.178;21.176;2023-04-06T13:18:28;4.57;72.52
76897;SHT30;65856;52.178;21.176;2023-04-06T13:21:00;4.54;72.75
76897;SHT30;65856;52.178;21.176;2023-04-06T13:23:29;4.51;73.03
76897;SHT30;65856;52.178;21.176;2023-04-06T13:26:01;4.49;73.23
76897;SHT30;65856;52.178;21.176;2023-04-06T13:28:34;4.46;73.48
76897;SHT30;65856;52.178;21.176;2023-04-06T13:31:05;4.47;73.71
76897;SHT30;65856;52.178;21.176;2023-04-06T13:33:36;4.45;73.80
76897;SHT30;65856;52.178;21.176;2023-04-06T13:36:08;4.45;74.07
76897;SHT30;65856;52.178;21.176;2023-04-06T13:38:38;4.46;74.19
76897;SHT30;65856;52.178;21.176;2023-04-06T13:41:09;4.45;74.36
76897;SHT30;65856;52.178;21.176;2023-04-06T13:43:47;4.47;74.48
76897;SHT30;65856;52.178;21.176;2023-04-06T13:46:17;4.45;74.52
76897;SHT30;65856;52.178;21.176;2023-04-06T13:48:50;4.41;74.63
76897;SHT30;65856;52.178;21.176;2023-04-06T13:51:21;4.39;74.74
76897;SHT30;65856;52.178;21.176;2023-04-06T13:53:52;4.34;74.64
76897;SHT30;65856;52.178;21.176;2023-04-06T13:56:23;4.35;74.87
76897;SHT30;65856;52.178;21.176;2023-04-06T13:58:54;4.37;75.01
76897;SHT30;65856;52.178;21.176;2023-04-06T14:01:25;4.40;75.28
76897;SHT30;65856;52.178;21.176;2023-04-06T14:03:56;4.43;75.38
76897;SHT30;65856;52.178;21.176;2023-04-06T14:06:26;4.48;75.46
76897;SHT30;65856;52.178;21.176;2023-04-06T14:08:57;4.53;75.71
76897;SHT30;65856;52.178;21.176;2023-04-06T14:11:28;4.59;75.74
76897;SHT30;65856;52.178;21.176;2023-04-06T14:13:59;4.62;75.83
76897;SHT30;65856;52.178;21.176;2023-04-06T14:16:29;4.62;75.86
76897;SHT30;65856;52.178;21.176;2023-04-06T14:19:00;4.64;75.88
76897;SHT30;65856;52.178;21.176;2023-04-06T14:21:31;4.66;75.83
76897;SHT30;65856;52.178;21.176;2023-04-06T14:24:01;4.65;75.78
76897;SHT30;65856;52.178;21.176;2023-04-06T14:26:32;4.65;75.81
76897;SHT30;65856;52.178;21.176;2023-04-06T14:29:04;4.66;75.98
76897;SHT30;65856;52.178;21.176;2023-04-06T14:31:35;4.68;76.07
76897;SHT30;65856;52.178;21.176;2023-04-06T14:34:05;4.70;75.97
76897;SHT30;65856;52.178;21.176;2023-04-06T14:36:36;4.70;76.06
76897;SHT30;65856;52.178;21.176;2023-04-06T14:39:07;4.72;76.12
76897;SHT30;65856;52.178;21.176;2023-04-06T14:41:37;4.71;76.08
76897;SHT30;65856;52.178;21.176;2023-04-06T14:44:08;4.72;76.09
76897;SHT30;65856;52.178;21.176;2023-04-06T14:46:39;4.72;76.00
76897;SHT30;65856;52.178;21.176;2023-04-06T14:49:10;4.70;76.14
76897;SHT30;65856;52.178;21.176;2023-04-06T14:51:41;4.69;76.07
76897;SHT30;65856;52.178;21.176;2023-04-06T14:54:11;4.72;76.16
76897;SHT30;65856;52.178;21.176;2023-04-06T14:56:42;4.71;75.98
76897;SHT30;65856;52.178;21.176;2023-04-06T14:59:12;4.68;76.16
76897;SHT30;65856;52.178;21.176;2023-04-06T15:01:43;4.67;76.32
76897;SHT30;65856;52.178;21.176;2023-04-06T15:04:14;4.67;76.47
76897;SHT30;65856;52.178;21.176;2023-04-06T15:06:44;4.66;76.54
76897;SHT30;65856;52.178;21.176;2023-04-06T15:09:15;4.67;76.61
76897;SHT30;65856;52.178;21.176;2023-04-06T15:11:46;4.69;76.63
76897;SHT30;65856;52.178;21.176;2023-04-06T15:14:16;4.70;76.64
76897;SHT30;65856;52.178;21.176;2023-04-06T15:16:47;4.71;76.63
76897;SHT30;65856;52.178;21.176;2023-04-06T15:19:17;4.73;76.65
76897;SHT30;65856;52.178;21.176;2023-04-06T15:21:48;4.71;76.56
76897;SHT30;65856;52.178;21.176;2023-04-06T15:24:19;4.72;76.65
76897;SHT30;65856;52.178;21.176;2023-04-06T15:26:49;4.76;76.71
76897;SHT30;65856;52.178;21.176;2023-04-06T15:29:21;4.76;76.72
76897;SHT30;65856;52.178;21.176;2023-04-06T15:31:52;4.74;76.64
76897;SHT30;65856;52.178;21.176;2023-04-06T15:34:23;4.72;76.70
76897;SHT30;65856;52.178;21.176;2023-04-06T15:36:56;4.71;76.70
76897;SHT30;65856;52.178;21.176;2023-04-06T15:39:31;4.71;76.79
76897;SHT30;65856;52.178;21.176;2023-04-06T15:42:03;4.70;76.90
76897;SHT30;65856;52.178;21.176;2023-04-06T15:44:32;4.69;76.93
76897;SHT30;65856;52.178;21.176;2023-04-06T15:47:03;4.71;76.86
76897;SHT30;65856;52.178;21.176;2023-04-06T15:49:33;4.72;76.78
76897;SHT30;65856;52.178;21.176;2023-04-06T15:52:04;4.77;76.82
76897;SHT30;65856;52.178;21.176;2023-04-06T15:54:35;4.78;76.87
76897;SHT30;65856;52.178;21.176;2023-04-06T15:57:06;4.78;76.97